Springdale, Texas
Current Conditions -  °F | °C
As of 2:53 AM on Saturday 20 Dec 2014 (Local Time) from KTXK Reporting Station
Haze Haze  
Wind Chill: 43°   Ceiling: 900
Heat Index: 43°   Visibility: 5mi
Dew Point: 41°   Wind: 3mph
Humidity: 93%   Direction: 50°NE
Pressure: 30.21"   Gusts: NA
Location:  33.2185°N, 94.1365°W
Report Text: KTXK 200853Z AUTO 05003KT 5SM BR OVC009 06/05 A3021 RMK AO2 SLP230 T00610050 55003
Loading
Personal Weather Stations






























Interactive Weather Map New forecast layout! Learn more

10-Day Weather Forecast

Advertisements
Track Severe Weather on mobile